createdAt,value
2023-05-08T00:00:59.111Z,1.80
2023-05-08T00:03:27.146Z,2.60
2023-05-08T00:05:55.844Z,3.50
2023-05-08T00:08:23.472Z,2.20
2023-05-08T00:10:50.390Z,1.30
2023-05-08T00:13:20.431Z,2.90
2023-05-08T00:15:47.766Z,3.10
2023-05-08T00:18:14.513Z,4.40
2023-05-08T00:20:41.880Z,1.80
2023-05-08T00:23:08.697Z,13.80
2023-05-08T00:25:35.995Z,2.60
2023-05-08T00:28:02.874Z,3.20
2023-05-08T00:30:29.840Z,2.40
2023-05-08T00:32:57.651Z,4.80
2023-05-08T00:35:24.527Z,3.80
2023-05-08T00:37:51.275Z,2.50
2023-05-08T00:40:18.021Z,1.50
2023-05-08T00:42:44.804Z,2.90
2023-05-08T00:45:11.756Z,1.90
2023-05-08T00:47:39.036Z,2.10
2023-05-08T00:50:06.906Z,2.80
2023-05-08T00:52:33.794Z,3.20
2023-05-08T00:55:01.701Z,2.30
2023-05-08T00:57:30.528Z,2.00
2023-05-08T00:59:57.538Z,2.80
2023-05-08T01:02:24.460Z,2.50
2023-05-08T01:04:52.550Z,4.50
2023-05-08T01:07:19.960Z,4.40
2023-05-08T01:09:46.720Z,3.10
2023-05-08T01:12:50.983Z,2.50
2023-05-08T01:15:29.620Z,2.40
2023-05-08T01:18:07.116Z,4.20
2023-05-08T01:20:47.035Z,4.00
2023-05-08T01:23:29.266Z,2.10
2023-05-08T01:26:07.505Z,4.90
2023-05-08T01:28:48.523Z,2.50
2023-05-08T01:31:46.505Z,2.30
2023-05-08T01:34:20.426Z,2.60
2023-05-08T01:37:02.036Z,2.10
2023-05-08T01:40:03.498Z,3.80
2023-05-08T01:42:50.701Z,2.30
2023-05-08T01:45:29.112Z,1.60
2023-05-08T01:48:03.089Z,2.60
2023-05-08T01:50:35.866Z,1.80
2023-05-08T01:53:09.113Z,2.40
2023-05-08T01:55:36.720Z,2.90
2023-05-08T01:58:06.380Z,2.80
2023-05-08T02:00:33.639Z,1.80
2023-05-08T02:03:01.547Z,2.00
2023-05-08T02:05:28.308Z,2.50
2023-05-08T02:07:55.148Z,3.60
2023-05-08T02:10:22.840Z,2.70
2023-05-08T02:12:51.581Z,3.60
2023-05-08T02:15:18.893Z,1.80
2023-05-08T02:17:47.054Z,2.10
2023-05-08T02:20:15.232Z,2.00
2023-05-08T02:22:46.045Z,2.40
2023-05-08T02:25:14.596Z,3.30
2023-05-08T02:27:44.045Z,3.60
2023-05-08T02:30:13.278Z,2.90
2023-05-08T02:32:42.611Z,2.80
2023-05-08T02:37:37.469Z,4.40
2023-05-08T02:40:04.626Z,3.10
2023-05-08T02:42:31.689Z,1.70
2023-05-08T02:44:58.592Z,3.20
2023-05-08T02:47:27.649Z,3.40
2023-05-08T02:50:03.715Z,4.10
2023-05-08T02:53:03.262Z,3.30
2023-05-08T02:55:57.999Z,2.20
2023-05-08T02:58:49.977Z,3.50
2023-05-08T03:01:27.608Z,2.40
2023-05-08T03:04:38.976Z,2.70
2023-05-08T03:07:05.922Z,1.60
2023-05-08T03:09:38.823Z,2.70
2023-05-08T03:12:09.278Z,2.20
2023-05-08T03:14:37.488Z,2.70
2023-05-08T03:17:05.870Z,3.20
2023-05-08T03:19:34.804Z,3.30
2023-05-08T03:22:04.194Z,2.30
2023-05-08T03:24:31.663Z,2.80
2023-05-08T03:26:59.062Z,2.90
2023-05-08T03:29:25.921Z,4.10
2023-05-08T03:31:52.855Z,3.00
2023-05-08T03:34:19.858Z,2.60
2023-05-08T03:36:46.710Z,3.80
2023-05-08T03:39:13.858Z,3.40
2023-05-08T03:41:40.755Z,2.70
2023-05-08T03:44:07.755Z,2.50
2023-05-08T03:46:34.659Z,2.90
2023-05-08T03:49:04.134Z,2.80
2023-05-08T03:51:31.591Z,3.10
2023-05-08T03:53:58.404Z,3.80
2023-05-08T03:56:26.228Z,3.50
2023-05-08T03:59:17.325Z,3.00
2023-05-08T04:01:50.555Z,4.10
2023-05-08T04:04:33.885Z,2.80
2023-05-08T04:07:15.951Z,3.10
2023-05-08T04:10:08.622Z,3.60
2023-05-08T04:12:47.215Z,2.40
2023-05-08T04:15:18.736Z,3.30
2023-05-08T04:17:51.920Z,3.20
2023-05-08T04:20:20.684Z,3.70
2023-05-08T04:22:48.461Z,2.10
2023-05-08T04:25:15.960Z,2.60
2023-05-08T04:27:43.771Z,2.90
2023-05-08T04:30:10.862Z,1.90
2023-05-08T04:32:40.923Z,2.40
2023-05-08T04:35:09.634Z,2.80
2023-05-08T04:37:37.143Z,1.90
2023-05-08T04:40:05.266Z,3.90
2023-05-08T04:42:36.498Z,3.10
2023-05-08T04:45:03.743Z,3.00
2023-05-08T04:47:31.164Z,6.20
2023-05-08T04:50:00.037Z,4.50
2023-05-08T04:52:28.926Z,2.60
2023-05-08T04:54:55.967Z,4.10
2023-05-08T04:57:22.815Z,3.80
2023-05-08T04:59:49.731Z,2.80
2023-05-08T05:02:16.493Z,3.00
2023-05-08T05:04:43.503Z,3.20
2023-05-08T05:07:10.659Z,4.30
2023-05-08T05:09:39.353Z,3.30
2023-05-08T05:12:07.095Z,4.40
2023-05-08T05:14:34.502Z,4.70
2023-05-08T05:17:01.593Z,15.10
2023-05-08T05:19:29.425Z,21.30
2023-05-08T05:21:56.382Z,11.40
2023-05-08T05:24:23.276Z,4.20
2023-05-08T05:26:50.207Z,5.60
2023-05-08T05:29:17.158Z,4.00
2023-05-08T05:31:44.157Z,4.20
2023-05-08T05:34:11.266Z,2.70
2023-05-08T05:36:38.258Z,3.10
2023-05-08T05:39:05.387Z,3.60
2023-05-08T05:41:32.984Z,2.30
2023-05-08T05:44:00.452Z,2.80
2023-05-08T05:46:32.523Z,3.60
2023-05-08T05:49:00.858Z,30.60
2023-05-08T05:51:27.800Z,31.70
2023-05-08T05:53:55.226Z,7.20
2023-05-08T05:56:23.474Z,4.40
2023-05-08T05:58:50.328Z,3.60
2023-05-08T06:01:17.930Z,4.00
2023-05-08T06:03:44.836Z,3.40
2023-05-08T06:06:11.713Z,4.50
2023-05-08T06:08:38.800Z,6.80
2023-05-08T06:11:05.880Z,11.70
2023-05-08T06:13:33.170Z,5.50
2023-05-08T06:16:00.541Z,4.10
2023-05-08T06:18:27.297Z,7.50
2023-05-08T06:21:00.365Z,3.30
2023-05-08T06:23:27.285Z,11.10
2023-05-08T06:25:54.162Z,23.90
2023-05-08T06:28:22.510Z,18.60
2023-05-08T06:30:49.394Z,23.50
2023-05-08T06:33:16.473Z,12.80
2023-05-08T06:35:47.492Z,8.60
2023-05-08T06:38:14.750Z,5.40
2023-05-08T06:40:43.704Z,2.80
2023-05-08T06:43:11.236Z,4.90
2023-05-08T06:45:38.505Z,4.40
2023-05-08T06:48:06.016Z,7.00
2023-05-08T06:50:33.114Z,5.50
2023-05-08T06:52:59.949Z,4.20
2023-05-08T06:55:26.689Z,5.40
2023-05-08T06:57:53.416Z,14.40
2023-05-08T07:00:20.735Z,7.20
2023-05-08T07:02:47.740Z,5.20
2023-05-08T07:05:15.098Z,3.80
2023-05-08T07:07:43.044Z,6.00
2023-05-08T07:10:10.490Z,9.10
2023-05-08T07:12:38.155Z,5.70
2023-05-08T07:17:37.192Z,4.90
2023-05-08T07:20:05.422Z,4.40
2023-05-08T07:22:32.520Z,2.50
2023-05-08T07:24:59.472Z,3.60
2023-05-08T07:27:26.814Z,3.90
2023-05-08T07:29:53.887Z,3.60
2023-05-08T07:32:21.351Z,4.00
2023-05-08T07:34:49.002Z,4.10
2023-05-08T07:37:16.252Z,5.50
2023-05-08T07:39:43.200Z,6.10
2023-05-08T07:42:10.123Z,5.10
2023-05-08T07:44:46.991Z,5.70
2023-05-08T07:47:20.591Z,4.10
2023-05-08T07:49:47.767Z,5.40
2023-05-08T07:52:14.917Z,8.60
2023-05-08T07:54:41.761Z,12.50
2023-05-08T07:57:08.655Z,4.70
2023-05-08T07:59:35.824Z,6.10
2023-05-08T08:02:03.116Z,6.70
2023-05-08T08:04:30.346Z,5.00
2023-05-08T08:06:57.408Z,3.80
2023-05-08T08:09:25.197Z,4.60
2023-05-08T08:11:52.278Z,4.90
2023-05-08T08:14:19.125Z,5.80
2023-05-08T08:16:46.331Z,7.20
2023-05-08T08:19:13.158Z,4.50
2023-05-08T08:21:44.013Z,4.80
2023-05-08T08:24:11.161Z,4.70
2023-05-08T08:26:38.278Z,5.50
2023-05-08T08:29:05.060Z,3.80
2023-05-08T08:31:32.318Z,4.20
2023-05-08T08:33:59.844Z,5.80
2023-05-08T08:36:26.865Z,6.10
2023-05-08T08:38:54.278Z,5.40
2023-05-08T08:41:22.192Z,5.80
2023-05-08T08:43:49.212Z,7.00
2023-05-08T08:46:16.258Z,7.40
2023-05-08T08:48:44.663Z,6.50
2023-05-08T08:51:14.877Z,4.50
2023-05-08T08:53:43.447Z,4.90
2023-05-08T08:56:10.769Z,3.00
2023-05-08T08:58:47.061Z,5.10
2023-05-08T09:01:18.395Z,6.00
2023-05-08T09:03:46.770Z,5.70
2023-05-08T09:06:15.553Z,3.10
2023-05-08T09:08:42.724Z,5.70
2023-05-08T09:11:09.580Z,5.50
2023-05-08T09:13:37.502Z,10.40
2023-05-08T09:16:05.292Z,4.00
2023-05-08T09:18:32.159Z,4.80
2023-05-08T09:21:01.470Z,4.30
2023-05-08T09:23:28.511Z,3.10
2023-05-08T09:25:55.668Z,5.60
2023-05-08T09:28:24.256Z,3.40
2023-05-08T09:30:58.172Z,5.00
2023-05-08T09:33:27.442Z,3.70
2023-05-08T09:35:57.028Z,5.70
2023-05-08T09:38:30.107Z,4.70
2023-05-08T09:41:16.222Z,3.30
2023-05-08T09:43:44.746Z,4.10
2023-05-08T09:46:26.606Z,6.40
2023-05-08T09:48:55.081Z,16.60
2023-05-08T09:51:23.166Z,9.40
2023-05-08T09:53:52.430Z,3.90
2023-05-08T10:04:07.416Z,4.50
2023-05-08T10:06:36.563Z,4.50
2023-05-08T10:09:10.968Z,6.30
2023-05-08T10:11:42.012Z,3.10
2023-05-08T10:14:09.159Z,4.10
2023-05-08T10:16:45.175Z,5.80
2023-05-08T10:21:42.771Z,2.40
2023-05-08T10:26:50.724Z,2.20
2023-05-08T10:29:34.670Z,2.30
2023-05-08T10:32:01.687Z,2.80
2023-05-08T10:34:28.763Z,4.30
2023-05-08T10:36:55.844Z,3.40
2023-05-08T10:39:22.679Z,4.60
2023-05-08T10:41:50.407Z,4.00
2023-05-08T10:44:17.550Z,5.50
2023-05-08T10:47:06.725Z,4.70
2023-05-08T10:49:56.608Z,5.90
2023-05-08T10:52:45.196Z,25.40
2023-05-08T10:55:17.781Z,11.10
2023-05-08T10:58:05.075Z,11.50
2023-05-08T11:00:52.480Z,7.60
2023-05-08T11:03:30.631Z,9.00
2023-05-08T11:05:59.835Z,8.10
2023-05-08T11:08:28.061Z,9.80
2023-05-08T11:18:48.830Z,13.20
2023-05-08T11:21:22.087Z,4.60
2023-05-08T11:23:56.999Z,5.90
2023-05-08T11:26:23.831Z,12.30
2023-05-08T11:28:53.778Z,8.80
2023-05-08T11:31:21.097Z,6.50
2023-05-08T11:33:47.972Z,5.50
2023-05-08T11:36:20.662Z,3.60
2023-05-08T11:39:12.842Z,8.60
2023-05-08T11:41:40.154Z,3.80
2023-05-08T11:44:20.637Z,6.20
2023-05-08T11:46:54.673Z,2.40
2023-05-08T11:49:29.493Z,8.20
2023-05-08T11:51:58.599Z,4.20
2023-05-08T11:54:25.974Z,5.10
2023-05-08T11:56:57.202Z,4.50
2023-05-08T11:59:24.222Z,3.20
2023-05-08T12:02:06.794Z,5.40
2023-05-08T12:04:46.921Z,4.90
2023-05-08T12:07:15.930Z,4.20
2023-05-08T12:09:42.926Z,6.90
2023-05-08T12:12:10.059Z,12.80
2023-05-08T12:14:37.292Z,11.10
2023-05-08T12:17:04.136Z,5.60
2023-05-08T12:19:31.503Z,4.70
2023-05-08T12:21:58.521Z,3.70
2023-05-08T12:24:26.892Z,3.00
2023-05-08T12:26:55.977Z,3.20
2023-05-08T12:31:50.327Z,3.50
2023-05-08T12:34:17.242Z,2.30
2023-05-08T12:36:44.098Z,2.80
2023-05-08T12:39:15.984Z,3.60
2023-05-08T12:41:49.726Z,4.30
2023-05-08T12:44:18.188Z,3.40
2023-05-08T12:46:55.724Z,3.40
2023-05-08T12:49:27.068Z,2.10
2023-05-08T12:52:10.540Z,3.00
2023-05-08T12:54:40.040Z,3.50
2023-05-08T12:57:10.658Z,3.60
2023-05-08T12:59:37.502Z,3.60
2023-05-08T13:02:04.465Z,3.50
2023-05-08T13:04:37.196Z,3.30
2023-05-08T13:07:04.414Z,3.50
2023-05-08T13:09:32.407Z,2.70
2023-05-08T13:11:59.230Z,2.30
2023-05-08T13:14:26.610Z,3.10
2023-05-08T13:16:53.817Z,3.10
2023-05-08T13:19:20.798Z,3.50
2023-05-08T13:21:48.132Z,2.50
2023-05-08T13:24:15.347Z,2.80
2023-05-08T13:26:42.195Z,3.00
2023-05-08T13:29:09.012Z,2.50
2023-05-08T13:31:35.817Z,4.90
2023-05-08T13:34:03.093Z,3.40
2023-05-08T13:36:30.078Z,3.00
2023-05-08T13:38:57.583Z,3.60
2023-05-08T13:41:24.927Z,3.60
2023-05-08T13:43:51.901Z,6.60
2023-05-08T13:46:18.887Z,3.50
2023-05-08T13:48:46.005Z,2.70
2023-05-08T13:51:13.238Z,6.00
2023-05-08T13:53:40.179Z,5.40
2023-05-08T13:56:07.383Z,3.80
2023-05-08T13:58:34.347Z,8.10
2023-05-08T14:01:10.477Z,4.40
2023-05-08T14:03:45.046Z,3.40
2023-05-08T14:06:12.325Z,2.90
2023-05-08T14:08:45.250Z,4.00
2023-05-08T14:11:13.872Z,6.00
2023-05-08T14:13:44.430Z,4.90
2023-05-08T14:16:12.952Z,3.20
2023-05-08T14:18:40.627Z,2.10
2023-05-08T14:21:07.598Z,3.80
2023-05-08T14:23:36.148Z,7.40
2023-05-08T14:26:05.168Z,8.50
2023-05-08T14:28:32.334Z,7.10
2023-05-08T14:30:59.226Z,2.70
2023-05-08T14:33:26.523Z,8.20
2023-05-08T14:35:53.358Z,7.50
2023-05-08T14:38:20.785Z,4.60
2023-05-08T14:40:51.219Z,3.50
2023-05-08T14:43:18.297Z,3.60
2023-05-08T14:45:45.448Z,6.70
2023-05-08T14:48:12.597Z,7.70
2023-05-08T14:50:39.594Z,7.10
2023-05-08T14:53:07.517Z,4.80
2023-05-08T14:55:35.056Z,4.40
2023-05-08T14:58:02.298Z,4.90
2023-05-08T15:00:29.454Z,2.10
2023-05-08T15:02:56.646Z,6.70
2023-05-08T15:05:23.720Z,4.40
2023-05-08T15:07:50.956Z,5.50
2023-05-08T15:10:17.976Z,4.80
2023-05-08T15:12:45.043Z,3.10
2023-05-08T15:15:12.207Z,1.90
2023-05-08T15:17:41.657Z,4.30
2023-05-08T15:20:09.391Z,6.90
2023-05-08T15:22:37.084Z,4.70
2023-05-08T15:25:05.501Z,8.60
2023-05-08T15:27:32.408Z,7.60
2023-05-08T15:29:59.423Z,4.60
2023-05-08T15:32:26.330Z,5.50
2023-05-08T15:34:53.236Z,9.00
2023-05-08T15:37:20.050Z,6.00
2023-05-08T15:39:47.095Z,3.30
2023-05-08T15:42:14.085Z,8.50
2023-05-08T15:44:54.168Z,9.40
2023-05-08T15:47:23.592Z,4.50
2023-05-08T15:49:51.218Z,2.60
2023-05-08T15:52:19.851Z,3.50
2023-05-08T15:54:47.629Z,5.60
2023-05-08T15:57:14.647Z,7.70
2023-05-08T15:59:41.740Z,6.30
2023-05-08T16:02:09.023Z,4.30
2023-05-08T16:04:37.001Z,5.20
2023-05-08T16:07:04.538Z,7.70
2023-05-08T16:09:31.787Z,5.90
2023-05-08T16:11:58.753Z,9.20
2023-05-08T16:14:25.825Z,24.60
2023-05-08T16:16:53.006Z,6.80
2023-05-08T16:19:19.959Z,3.60
2023-05-08T16:21:50.297Z,3.40
2023-05-08T16:24:17.260Z,5.60
2023-05-08T16:26:44.209Z,3.70
2023-05-08T16:29:10.979Z,8.60
2023-05-08T16:31:37.900Z,6.00
2023-05-08T16:34:04.771Z,3.30
2023-05-08T16:36:31.825Z,3.20
2023-05-08T16:38:58.854Z,4.70
2023-05-08T16:41:26.925Z,1.80
2023-05-08T16:43:54.085Z,1.70
2023-05-08T16:46:29.616Z,4.90
2023-05-08T16:48:57.632Z,5.10
2023-05-08T16:51:24.575Z,2.70
2023-05-08T16:53:51.671Z,4.20
2023-05-08T16:56:18.776Z,4.30
2023-05-08T16:58:46.128Z,3.10
2023-05-08T17:01:14.260Z,3.40
2023-05-08T17:03:41.287Z,5.20
2023-05-08T17:06:09.013Z,7.00
2023-05-08T17:08:36.409Z,6.60
2023-05-08T17:11:03.501Z,13.50
2023-05-08T17:13:30.724Z,22.60
2023-05-08T17:15:57.916Z,8.90
2023-05-08T17:18:24.918Z,6.00
2023-05-08T17:20:52.349Z,3.50
2023-05-08T17:23:21.404Z,3.40
2023-05-08T17:25:56.709Z,5.80
2023-05-08T17:28:24.006Z,11.70
2023-05-08T17:30:51.116Z,25.30
2023-05-08T17:33:18.393Z,20.60
2023-05-08T17:35:45.344Z,13.20
2023-05-08T17:38:12.773Z,15.70
2023-05-08T17:40:39.906Z,9.50
2023-05-08T17:43:07.394Z,8.30
2023-05-08T17:45:34.945Z,10.00
2023-05-08T17:48:01.965Z,8.00
2023-05-08T17:50:29.385Z,5.40
2023-05-08T17:52:56.283Z,6.80
2023-05-08T17:55:23.215Z,5.30
2023-05-08T17:57:50.497Z,5.10
2023-05-08T18:00:17.873Z,3.40
2023-05-08T18:02:45.206Z,4.10
2023-05-08T18:05:12.197Z,6.10
2023-05-08T18:07:39.757Z,2.70
2023-05-08T18:10:07.823Z,2.10
2023-05-08T18:12:35.468Z,4.20
2023-05-08T18:15:05.555Z,5.70
2023-05-08T18:17:32.511Z,15.30
2023-05-08T18:19:59.698Z,14.20
2023-05-08T18:22:26.947Z,14.40
2023-05-08T18:24:54.514Z,15.70
2023-05-08T18:27:21.460Z,14.60
2023-05-08T18:29:48.577Z,14.60
2023-05-08T18:32:15.500Z,15.70
2023-05-08T18:34:42.695Z,10.80
2023-05-08T18:37:09.624Z,12.40
2023-05-08T18:39:36.844Z,20.10
2023-05-08T18:42:03.989Z,27.50
2023-05-08T18:44:31.068Z,20.60
2023-05-08T18:46:57.995Z,25.60
2023-05-08T18:49:24.899Z,28.30
2023-05-08T18:51:51.801Z,35.40
2023-05-08T18:54:18.778Z,19.50
2023-05-08T18:56:45.544Z,6.20
2023-05-08T18:59:12.342Z,7.70
2023-05-08T19:01:39.341Z,6.20
2023-05-08T19:04:06.537Z,5.30
2023-05-08T19:06:34.378Z,4.80
2023-05-08T19:09:01.233Z,5.00
2023-05-08T19:11:28.321Z,4.60
2023-05-08T19:13:56.378Z,5.70
2023-05-08T19:16:23.543Z,4.30
2023-05-08T19:18:51.223Z,6.30
2023-05-08T19:21:18.038Z,4.80
2023-05-08T19:23:45.080Z,5.10
2023-05-08T19:26:11.921Z,6.10
2023-05-08T19:28:38.782Z,7.10
2023-05-08T19:31:05.663Z,6.60
2023-05-08T19:33:32.855Z,5.50
2023-05-08T19:35:59.951Z,5.30
2023-05-08T19:38:26.950Z,6.30
2023-05-08T19:40:57.344Z,4.80
2023-05-08T19:43:28.110Z,5.80
2023-05-08T19:45:55.439Z,4.80
2023-05-08T19:48:22.697Z,3.90
2023-05-08T19:50:52.720Z,6.30
2023-05-08T19:53:22.231Z,5.90
2023-05-08T19:55:49.514Z,4.80
2023-05-08T19:58:17.724Z,5.30
2023-05-08T20:00:50.852Z,6.80
2023-05-08T20:03:18.257Z,4.50
2023-05-08T20:05:45.836Z,5.30
2023-05-08T20:08:13.069Z,4.50
2023-05-08T20:10:40.214Z,5.20
2023-05-08T20:13:07.355Z,3.50
2023-05-08T20:15:34.228Z,6.00
2023-05-08T20:18:01.179Z,5.30
2023-05-08T20:20:29.860Z,5.50
2023-05-08T20:22:56.937Z,4.20
2023-05-08T20:25:23.761Z,4.40
2023-05-08T20:27:50.818Z,6.40
2023-05-08T20:30:17.644Z,4.30
2023-05-08T20:32:44.863Z,4.20
2023-05-08T20:35:12.443Z,5.70
2023-05-08T20:37:46.915Z,4.50
2023-05-08T20:40:14.592Z,6.60
2023-05-08T20:50:17.011Z,3.20
2023-05-08T20:52:44.208Z,3.60
2023-05-08T20:55:11.355Z,4.30
2023-05-08T20:57:39.262Z,4.70
2023-05-08T21:00:08.319Z,5.00
2023-05-08T21:02:38.741Z,4.60
2023-05-08T21:05:07.012Z,4.90
2023-05-08T21:08:43.907Z,5.00
2023-05-08T21:11:12.503Z,7.70
2023-05-08T21:13:40.417Z,4.20
2023-05-08T21:16:08.436Z,3.10
2023-05-08T21:18:35.826Z,6.50
2023-05-08T21:21:02.954Z,5.70
2023-05-08T21:23:31.123Z,6.70
2023-05-08T21:25:58.073Z,3.30
2023-05-08T21:28:25.459Z,3.80
2023-05-08T21:30:52.457Z,3.30
2023-05-08T21:33:19.781Z,3.90
2023-05-08T21:36:43.550Z,3.80
2023-05-08T21:39:11.024Z,4.70
2023-05-08T21:41:38.216Z,5.90
2023-05-08T21:44:05.433Z,5.10
2023-05-08T21:46:32.563Z,4.40
2023-05-08T21:48:59.450Z,11.00
2023-05-08T21:51:26.407Z,3.40
2023-05-08T21:53:53.428Z,5.60
2023-05-08T21:56:20.959Z,4.90
2023-05-08T21:58:49.129Z,3.60
2023-05-08T22:01:16.054Z,4.50
2023-05-08T22:03:43.045Z,5.10
2023-05-08T22:06:09.979Z,5.70
2023-05-08T22:08:37.429Z,5.60
2023-05-08T22:11:04.516Z,7.40
2023-05-08T22:13:31.666Z,5.10
2023-05-08T22:15:58.857Z,5.40
2023-05-08T22:18:25.835Z,6.30
2023-05-08T22:20:52.916Z,6.80
2023-05-08T22:23:19.803Z,4.00
2023-05-08T22:25:46.711Z,5.20
2023-05-08T22:28:13.523Z,5.60
2023-05-08T22:30:40.655Z,4.40
2023-05-08T22:33:08.047Z,4.00
2023-05-08T22:35:35.669Z,5.10
2023-05-08T22:38:02.632Z,5.40
2023-05-08T22:40:30.368Z,5.50
2023-05-08T22:42:58.882Z,4.50
2023-05-08T22:45:27.349Z,5.90
2023-05-08T22:47:54.638Z,4.90
2023-05-08T22:50:22.021Z,5.30
2023-05-08T22:52:49.263Z,5.50
2023-05-08T22:55:16.903Z,5.00
2023-05-08T22:57:44.093Z,6.90
2023-05-08T23:00:11.971Z,4.90
2023-05-08T23:02:39.993Z,6.90
2023-05-08T23:05:08.033Z,5.50
2023-05-08T23:07:35.307Z,5.20
2023-05-08T23:10:02.629Z,4.50
2023-05-08T23:12:29.660Z,5.00
2023-05-08T23:14:56.606Z,4.90
2023-05-08T23:17:23.861Z,5.10
2023-05-08T23:19:51.125Z,4.40
2023-05-08T23:22:18.064Z,5.90
2023-05-08T23:24:44.923Z,4.50
2023-05-08T23:27:11.850Z,6.00
2023-05-08T23:29:39.216Z,6.50
2023-05-08T23:32:06.157Z,4.20
2023-05-08T23:34:33.153Z,4.80
2023-05-08T23:37:01.528Z,7.10
2023-05-08T23:39:28.566Z,7.10
2023-05-08T23:41:55.418Z,6.50
2023-05-08T23:44:22.601Z,6.20
2023-05-08T23:46:49.584Z,5.30
2023-05-08T23:49:16.965Z,6.70
2023-05-08T23:51:43.886Z,6.50
2023-05-08T23:54:11.197Z,8.40
2023-05-08T23:56:38.514Z,5.80
2023-05-08T23:59:05.492Z,7.40
